Other Surface Observations
Issued by NWS Great Falls, MT

Home | Current Version | Previous Version | Text Only | Print | Product List | Glossary On
Versions: 1 2 3 4 5 6 7 8 9 10 11 12 13 14 15 16 17 18 19 20 21 22 23 24 25 26 27 28 29 30 31 32 33 34 35 36 37 38 39 40 41 42 43 44 45 46 47 48 49 50
000
SXUS55 KTFX 050514
OSOTFX

AREA AWOS OBSERVATIONS
NATIONAL WEATHER SERVICE GREAT FALLS MT
1112 PM MDT Tue Aug 04 2015

METAR K6S8 050455Z AUTO 23000KT 40SM 16/11 A3001 RMK A01 T01610105
METAR K7S0 050455Z AUTO 01000KT 25SM 16/08 A2997 RMK A01 T01550083
METAR K7S0 050155Z AUTO 01000KT 40SM 26/10 A2993 RMK A01 T02550100
METAR K7S0 050055Z AUTO 01000KT 40SM 28/07 A2994 RMK A01 T02830072
METAR K7S1 050455Z AUTO 34006KT 40SM 19/07 A3003 RMK A01 T01880072
METAR K97M 050455Z AUTO 10001KT 40SM 16/13 A3000 RMK A01 T01610133
METAR K97M 050055Z AUTO 23014KT 25SM 18/14 A2998 RMK A01 T01770138
METAR K9S2 050455Z AUTO 33004KT 10SM 18/14 A2993 RMK A01 T01770138
METAR K9S2 050055Z AUTO 25014KT 40SM 28/12 A2987 RMK A01 T02770116
METAR K9S5 050455Z AUTO 33000KT 25SM 19/18 A3003 RMK A01 T01880177
METAR KM75 050455Z AUTO 14000KT 40SM 22/13 A2988 RMK A01 T02220133
METAR KRPX 050455Z AUTO 20001KT 40SM 17/11 A2992 RMK A01 T01720105
METAR KS01 050455Z AUTO 14003KT 25SM 16/14 A2998 RMK A01 T01550138
METAR KS01 050355Z AUTO 09000KT 15SM 16/15 A2998 RMK A01 T01550150
METAR KS01 040155Z AUTO 07003KT 25SM 30/12 A2984 RMK A01 T03000116
METAR KS34 050455Z AUTO 30000KT 25SM 19/04 A2990 RMK A01 T01940044
METAR KS34 050055Z AUTO 19005KT 25SM 31/08 A2986 RMK A01 T03050083
METAR KTHM 050455Z AUTO 21000KT 40SM 19/03 A2993 RMK A01 T01880033
METAR KTHM 050255Z AUTO 21007KT 40SM 27/03 A2990 RMK A01 T02720027



USA.gov is the U.S. government's official web portal to all federal, state and local government web resources and services.